Rechercher aéroport 
image banner adimage banner ad
image banner ad

SBAR - Santa Maria

Situé à Aracaju, Brazil

ICAO - SBAR, IATA - AJU

Données fournies par Airmate  

Information générale

Coordonnées: S10°59'7" W37°4'24"
Élévation : 22 feet MSL.
Variation magnétique : -23° East
Voir autres Aéroports à Sergipe

Données opérationnelles

Accessible au public
Heure actuelle UTC:
Heure actuelle locale:
Météo
METAR: SBAR 290200Z 08005KT 9999 FEW015 26/21 Q1015
TAF: TAF SBAR 282115Z 2900/2924 12007KT 9999 SCT017 TN25/2908Z TX29/2917Z BECMG 2900/2902 09005KT BECMG 2910/2912 28003KT BECMG 2912/2914 12010KT BECMG 2918/2920 14007KT RMK PGW
Voir NOTAMs / SUP AIP / TFR affectant cet aéroport [VIEW]
Fréquences de communication: [VIEW]

Pistes:

Identifiant RWYQFULongueur (ft)Largeur (ft)SurfaceLDA (ft)
1292°7218148
30272°7218148

Coordonnées de l'aéroport

Adresse: Aracaju Brazil

Autres services d'aviation

Clubs d'aviation (sans but lucratif)

Aeroclube De Sergipe

Aeroclube De Sergipe
+55793241-3646

Vue satellite de SBAR